• Join FlightAware (Why Join?)
  • Login
  • US Flag 
 
11:55AM EST


 

Airport Tracker/Info


-or-


 

Live Flight TrackerFlight Track Log ✈ RPA3159 ✈ 16-May-2013 ✈ KBTV - KPHL

Flight Track Log - Related Links

Times and Time Zones

All times are in EDT time to prevent confusion due to time zone crossing. See the RPA3159 flight status page for this flight to view local times or setup timezone preferences in your user account.

Time Position Orientation Groundspeed Altitude Reporting Facility
EDT Latitude Longitude Course Direction KTS MPH feet Rate Location/Type
11:33AM 44.4542 -73.2747 195° South 209 241 6,300  Level Boston Center
11:34AM 44.3811 -73.2997 194° South 234 269 9,400 2,460 Climbing Boston Center
11:35AM 44.0302 -73.3122 194° South  Level FlightAware Approximate
11:35AM 44.3203 -73.3308 200° South 271 312 11,300  Level Boston Center
11:36AM 43.9420 -73.3416 193° South  Level FlightAware Approximate
11:36AM 44.2322 -73.3992 209° Southwest 304 350 14,500  Level Boston Center
11:37AM 43.8543 -73.3735 195° South  Level FlightAware Approximate
11:37AM 44.1525 -73.4614 209° Southwest 321 369 17,000  Level Boston Center
11:38AM 43.7668 -73.4063 195° South  Level FlightAware Approximate
11:38AM 44.0686 -73.5294 210° Southwest 321 369 19,000  Level Boston Center
11:39AM 43.6792 -73.4391 195° South  Level FlightAware Approximate
11:39AM 43.9867 -73.5942 210° Southwest 327 376 19,000  Level Boston Center
11:40AM 43.9089 -73.6561 210° Southwest 327 376 20,900 1,500 Climbing Boston Center
11:41AM 43.8269 -73.7178 209° Southwest 332 382 22,000 540 Climbing Boston Center
11:42AM 43.7597 -73.7711 210° Southwest 337 388 22,000  Level Boston Center
11:43AM 43.6547 -73.8519 209° Southwest 337 388 22,000  Level Boston Center
11:44AM 43.5725 -73.9158 209° Southwest 337 388 22,000  Level Boston Center
11:45AM 43.4906 -73.9769 208° Southwest 337 388 22,000  Level Boston Center
11:46AM 43.4253 -74.0267 209° Southwest 337 388 22,000  Level Boston Center
11:47AM 43.3344 -74.0958 209° Southwest 337 388 22,000  Level Boston Center
11:48AM 43.2522 -74.1589 209° Southwest 337 388 22,000  Level Boston Center
11:49AM 43.1722 -74.2194 209° Southwest 337 388 22,000  Level Boston Center
11:50AM 43.0900 -74.2794 208° Southwest 337 388 22,000  Level Boston Center
11:51AM 43.0097 -74.3425 210° Southwest 337 388 22,000  Level Boston Center
11:52AM 42.9275 -74.4022 208° Southwest 343 395 22,000  Level Boston Center
11:53AM 42.8642 -74.4514 210° Southwest 343 395 22,000  Level Boston Center
11:54AM 42.7794 -74.5164 209° Southwest 343 395 22,000  Level Boston Center
11:55AM 42.6992 -74.5758 209° Southwest 343 395 22,000  Level Boston Center
11:56AM 42.6147 -74.6406 209° Southwest 343 395 22,000  Level Boston Center
11:57AM 42.5131 -74.7161 209° Southwest 348 400 22,000 -180 Level Boston Center
11:58AM 42.4306 -74.7750 208° Southwest 348 400 21,700 -600 Descending Boston Center
11:59AM 42.3650 -74.8231 208° Southwest 348 400 20,900 -1,020 Descending Boston Center
12:01PM 42.2083 -74.9339 208° Southwest 322 371 19,000 -540 Descending New York Center
12:03PM 42.0994 -75.0019 210° Southwest  Level FlightAware Approximate
12:03PM 42.0433 -75.0717 210° Southwest 327 376 19,000  Level New York Center
12:04PM 41.9681 -75.1364 213° Southwest 332 382 19,000  Level New York Center
12:05PM 41.8972 -75.1903 210° Southwest 332 382 19,000 -480 Level New York Center
12:06PM 41.8222 -75.2519 212° Southwest 326 375 18,100 -1,020 Descending New York Center
12:07PM 41.7383 -75.3186 211° Southwest 326 375 17,000 -1,140 Descending New York Center
12:08PM 41.6631 -75.3803 211° Southwest 319 367 15,900 -1,440 Descending New York Center
12:09PM 41.5986 -75.4311 211° Southwest 313 360 14,200 -1,800 Descending New York Center
12:10PM 41.5256 -75.4897 211° Southwest 313 360 12,400 -1,140 Descending New York Center
12:11PM 41.4353 -75.5608 211° Southwest 337 388 12,000 -240 Descending New York Center
12:12PM 41.3511 -75.6294 211° Southwest 348 400 12,000  Level New York Center
12:13PM 41.2583 -75.6589 193° South 344 396 12,000  Level New York Center
12:14PM 41.1533 -75.6292 168° South 361 415 12,000  Level New York Center
12:15PM 41.0606 -75.6033 168° South 381 438 12,000  Level New York Center
12:16PM 40.9578 -75.5739 168° South 386 444 12,000 -300 Level New York Center
12:17PM 40.8528 -75.5444 168° South 377 434 11,500 -540 Descending New York Center
12:18PM 40.7619 -75.5192 168° South 345 397 11,000 -540 Descending New York Center
12:19PM 40.6733 -75.4939 168° South 333 383 10,500 -540 Descending New York Center
12:20PM 40.5931 -75.4717 168° South 328 377 10,000 -300 Descending New York Center
12:21PM 40.5064 -75.4494 169° South 328 377 10,000  Level New York Center
12:22PM 40.4225 -75.4083 160° South 316 364 10,000 -780 Level New York Center
12:23PM 40.3558 -75.3575 150° Southeast 307 353 8,500 -1,560 Descending New York Center
12:24PM 40.2828 -75.3039 151° Southeast 297 342 6,900 -1,320 Descending New York Center
12:25PM 40.1972 -75.2492 154° Southeast 307 353 6,000 -480 Descending New York Center
12:26PM 40.1344 -75.2017 150° Southeast 307 353 6,000  Level New York Center
12:27PM 40.0575 -75.1453 151° Southeast 296 341 6,000  Level New York Center
12:28PM 40.0333 -75.0667 112° Southeast 230 265 6,000 -420 Level Philadelphia TRACON
12:29PM 40.0333 -75.0000 90° East 214 246 5,300 -900 Descending Philadelphia TRACON
12:30PM 40.0167 -74.9333 108° East 209 241 4,300 -660 Descending Philadelphia TRACON
12:31PM 39.9667 -74.9167 166° South 176 203 4,000 -600 Descending Philadelphia TRACON
12:32PM 39.9333 -74.9667 229° Southwest 163 188 3,100 -540 Descending Philadelphia TRACON
12:33PM 39.9167 -75.0167 247° West 165 190 3,000 -420 Descending Philadelphia TRACON
12:34PM 39.9000 -75.0667 247° West 163 188 2,300 -840 Descending Philadelphia TRACON
12:35PM 39.9000 -75.1333 270° West 166 191 1,400 -840 Descending Philadelphia TRACON
12:36PM 39.8833 -75.1833 247° West 123 142 700 -720 Descending Philadelphia TRACON